createdAt,value
2023-05-01T00:02:24.900Z,14.22
2023-05-01T00:04:52.929Z,14.30
2023-05-01T00:07:20.987Z,14.44
2023-05-01T00:09:49.060Z,14.94
2023-05-01T00:12:17.316Z,14.59
2023-05-01T00:14:45.132Z,14.49
2023-05-01T00:17:13.004Z,14.42
2023-05-01T00:19:40.985Z,15.66
2023-05-01T00:22:09.534Z,14.83
2023-05-01T00:24:37.445Z,15.01
2023-05-01T00:27:05.739Z,14.70
2023-05-01T00:29:33.896Z,14.52
2023-05-01T00:32:01.957Z,14.78
2023-05-01T00:34:30.208Z,14.39
2023-05-01T00:36:59.022Z,14.37
2023-05-01T00:39:26.922Z,13.92
2023-05-01T00:41:55.954Z,15.24
2023-05-01T00:44:23.869Z,15.21
2023-05-01T00:46:51.912Z,16.15
2023-05-01T00:49:20.782Z,14.59
2023-05-01T00:51:53.234Z,13.77
2023-05-01T00:54:23.064Z,16.32
2023-05-01T00:56:52.533Z,18.28
2023-05-01T00:59:21.036Z,17.92
2023-05-01T01:01:48.976Z,18.10
2023-05-01T01:04:17.078Z,17.60
2023-05-01T01:06:57.147Z,17.76
2023-05-01T01:09:38.980Z,18.24
2023-05-01T01:12:26.624Z,17.78
2023-05-01T01:15:25.927Z,17.05
2023-05-01T01:18:02.643Z,16.53
2023-05-01T01:20:39.802Z,15.14
2023-05-01T01:23:10.424Z,15.33
2023-05-01T01:26:09.854Z,15.24
2023-05-01T01:28:57.480Z,13.79
2023-05-01T01:31:47.175Z,11.98
2023-05-01T01:34:20.801Z,11.56
2023-05-01T01:37:06.926Z,11.84
2023-05-01T01:39:50.358Z,12.17
2023-05-01T01:42:36.737Z,11.01
2023-05-01T01:45:15.613Z,10.84
2023-05-01T01:47:45.264Z,11.58
2023-05-01T01:50:15.188Z,13.86
2023-05-01T01:52:46.070Z,14.74
2023-05-01T01:55:15.566Z,14.03
2023-05-01T01:57:46.370Z,13.71
2023-05-01T02:00:16.502Z,13.86
2023-05-01T02:02:48.944Z,14.27
2023-05-01T02:05:20.070Z,13.73
2023-05-01T02:07:50.439Z,13.54
2023-05-01T02:10:20.011Z,12.96
2023-05-01T02:12:51.901Z,12.67
2023-05-01T02:15:21.418Z,13.14
2023-05-01T02:17:51.784Z,12.75
2023-05-01T02:20:21.629Z,11.91
2023-05-01T02:22:52.672Z,12.01
2023-05-01T02:25:20.791Z,13.11
2023-05-01T02:27:58.461Z,12.57
2023-05-01T02:30:26.441Z,12.13
2023-05-01T02:32:54.427Z,12.22
2023-05-01T02:35:22.358Z,12.64
2023-05-01T02:37:51.495Z,12.41
2023-05-01T02:40:19.961Z,11.68
2023-05-01T02:42:50.052Z,11.71
2023-05-01T02:45:20.903Z,11.69
2023-05-01T02:47:52.130Z,11.10
2023-05-01T02:50:21.924Z,10.17
2023-05-01T02:52:50.078Z,10.09
2023-05-01T02:55:36.797Z,8.17
2023-05-01T02:58:04.908Z,8.71
2023-05-01T03:00:33.004Z,8.17
2023-05-01T03:03:01.250Z,9.63
2023-05-01T03:05:29.149Z,9.13
2023-05-01T03:07:57.264Z,8.93
2023-05-01T03:10:25.072Z,9.06
2023-05-01T03:12:52.902Z,8.26
2023-05-01T03:15:20.730Z,8.90
2023-05-01T03:17:48.666Z,9.65
2023-05-01T03:20:16.595Z,10.90
2023-05-01T03:22:44.645Z,11.85
2023-05-01T03:25:13.155Z,11.74
2023-05-01T03:27:41.048Z,12.58
2023-05-01T03:30:11.240Z,12.10
2023-05-01T03:32:42.097Z,11.91
2023-05-01T03:35:17.660Z,11.98
2023-05-01T03:37:45.744Z,12.17
2023-05-01T03:40:21.158Z,12.85
2023-05-01T03:43:09.295Z,12.86
2023-05-01T03:45:37.196Z,13.13
2023-05-01T03:48:05.512Z,13.50
2023-05-01T03:50:33.578Z,14.52
2023-05-01T03:53:01.459Z,13.57
2023-05-01T03:55:29.393Z,13.30
2023-05-01T03:57:57.392Z,13.86
2023-05-01T04:00:25.410Z,12.39
2023-05-01T04:02:53.853Z,12.41
2023-05-01T04:05:24.966Z,10.12
2023-05-01T04:07:57.009Z,8.76
2023-05-01T04:10:24.967Z,7.98
2023-05-01T04:13:00.731Z,7.18
2023-05-01T04:15:28.727Z,7.63
2023-05-01T04:17:57.211Z,7.44
2023-05-01T04:20:25.429Z,6.65
2023-05-01T04:22:53.318Z,6.80
2023-05-01T04:25:21.199Z,7.76
2023-05-01T04:27:51.645Z,7.28
2023-05-01T04:30:19.519Z,7.38
2023-05-01T04:32:47.501Z,7.40
2023-05-01T04:35:15.485Z,8.39
2023-05-01T04:37:45.122Z,8.98
2023-05-01T04:40:13.426Z,8.59
2023-05-01T04:42:42.494Z,9.23
2023-05-01T04:45:13.524Z,8.58
2023-05-01T04:47:42.530Z,8.44
2023-05-01T04:50:10.863Z,7.83
2023-05-01T04:52:39.208Z,8.08
2023-05-01T04:55:08.015Z,8.35
2023-05-01T04:57:38.824Z,8.68
2023-05-01T05:00:09.267Z,8.76
2023-05-01T05:02:46.775Z,8.58
2023-05-01T05:05:16.184Z,8.62
2023-05-01T05:07:44.063Z,8.63
2023-05-01T05:10:27.243Z,8.41
2023-05-01T05:13:14.738Z,8.72
2023-05-01T05:15:43.246Z,8.18
2023-05-01T05:18:12.285Z,7.71
2023-05-01T05:20:40.153Z,8.37
2023-05-01T05:23:08.672Z,8.12
2023-05-01T05:25:36.607Z,7.58
2023-05-01T05:28:04.605Z,6.83
2023-05-01T05:30:32.603Z,7.30
2023-05-01T05:33:00.745Z,7.40
2023-05-01T05:35:28.695Z,6.41
2023-05-01T05:37:56.587Z,7.92
2023-05-01T05:40:25.672Z,9.00
2023-05-01T05:42:57.102Z,9.97
2023-05-01T05:45:27.206Z,9.84
2023-05-01T05:47:55.451Z,9.64
2023-05-01T05:50:23.931Z,8.91
2023-05-01T05:52:52.214Z,8.02
2023-05-01T05:55:20.175Z,7.42
2023-05-01T05:58:00.714Z,7.80
2023-05-01T06:00:29.181Z,7.99
2023-05-01T06:02:58.940Z,8.19
2023-05-01T06:05:30.189Z,8.51
2023-05-01T06:07:58.161Z,8.31
2023-05-01T06:10:25.999Z,8.33
2023-05-01T06:12:55.544Z,7.94
2023-05-01T06:15:30.787Z,7.87
2023-05-01T06:17:58.974Z,7.96
2023-05-01T06:20:26.813Z,8.03
2023-05-01T06:22:54.676Z,7.78
2023-05-01T06:25:27.088Z,7.89
2023-05-01T06:27:54.980Z,7.58
2023-05-01T06:30:24.958Z,7.40
2023-05-01T06:32:52.959Z,7.77
2023-05-01T06:35:21.686Z,7.55
2023-05-01T06:37:49.576Z,7.05
2023-05-01T06:40:17.493Z,6.81
2023-05-01T06:42:45.389Z,6.82
2023-05-01T06:45:13.357Z,7.30
2023-05-01T06:47:41.277Z,8.10
2023-05-01T06:50:10.632Z,7.68
2023-05-01T06:52:38.466Z,8.14
2023-05-01T06:55:08.248Z,9.11
2023-05-01T06:57:36.248Z,8.08
2023-05-01T07:00:05.578Z,7.92
2023-05-01T07:02:33.644Z,7.32
2023-05-01T07:05:01.616Z,6.56
2023-05-01T07:07:30.920Z,7.12
2023-05-01T07:09:59.204Z,7.30
2023-05-01T07:12:27.453Z,7.31
2023-05-01T07:14:56.924Z,7.21
2023-05-01T07:17:25.127Z,7.41
2023-05-01T07:19:53.161Z,6.61
2023-05-01T07:22:21.246Z,7.58
2023-05-01T07:24:49.077Z,7.14
2023-05-01T07:27:16.969Z,7.25
2023-05-01T07:29:44.889Z,6.71
2023-05-01T07:32:12.877Z,6.18
2023-05-01T07:34:40.860Z,5.93
2023-05-01T07:37:08.899Z,5.93
2023-05-01T07:39:36.757Z,5.75
2023-05-01T07:42:04.613Z,5.84
2023-05-01T07:44:32.437Z,5.67
2023-05-01T07:47:04.587Z,5.65
2023-05-01T07:49:37.943Z,6.03
2023-05-01T07:52:07.673Z,5.81
2023-05-01T07:54:35.498Z,5.84
2023-05-01T07:57:04.477Z,5.42
2023-05-01T07:59:32.319Z,5.49
2023-05-01T08:02:00.264Z,5.65
2023-05-01T08:04:28.311Z,6.00
2023-05-01T08:06:56.374Z,5.46
2023-05-01T08:09:24.649Z,5.71
2023-05-01T08:11:52.516Z,5.93
2023-05-01T08:14:20.381Z,6.12
2023-05-01T08:16:54.226Z,6.04
2023-05-01T08:19:23.320Z,5.27
2023-05-01T08:21:51.435Z,5.38
2023-05-01T08:24:19.350Z,5.29
2023-05-01T08:26:47.512Z,4.90
2023-05-01T08:29:15.423Z,5.01
2023-05-01T08:31:43.914Z,5.47
2023-05-01T08:34:11.929Z,6.17
2023-05-01T08:36:39.793Z,6.49
2023-05-01T08:39:07.728Z,6.57
2023-05-01T08:41:37.790Z,6.21
2023-05-01T08:44:06.995Z,6.02
2023-05-01T08:46:48.102Z,5.89
2023-05-01T08:49:17.516Z,5.03
2023-05-01T08:51:50.079Z,5.00
2023-05-01T08:54:20.442Z,5.12
2023-05-01T08:56:51.248Z,4.90
2023-05-01T08:59:19.396Z,4.81
2023-05-01T09:01:47.938Z,5.06
2023-05-01T09:04:16.758Z,4.77
2023-05-01T09:06:45.088Z,5.56
2023-05-01T09:09:13.050Z,4.87
2023-05-01T09:11:44.845Z,4.53
2023-05-01T09:14:12.824Z,4.15
2023-05-01T09:16:40.808Z,4.55
2023-05-01T09:19:08.747Z,4.06
2023-05-01T09:21:36.649Z,4.21
2023-05-01T09:24:04.940Z,3.80
2023-05-01T09:26:36.896Z,5.47
2023-05-01T09:29:06.282Z,5.48
2023-05-01T09:31:35.074Z,4.19
2023-05-01T09:34:05.072Z,6.23
2023-05-01T09:36:34.299Z,3.80
2023-05-01T09:39:02.823Z,3.73
2023-05-01T09:41:33.947Z,3.71
2023-05-01T09:44:01.919Z,3.76
2023-05-01T09:46:41.702Z,4.40
2023-05-01T09:49:09.631Z,22.48
2023-05-01T09:51:37.903Z,5.23
2023-05-01T09:54:06.710Z,4.42
2023-05-01T09:56:49.339Z,4.69
2023-05-01T09:59:20.115Z,4.66
2023-05-01T10:01:50.090Z,4.75
2023-05-01T10:04:30.560Z,4.53
2023-05-01T10:07:12.286Z,4.60
2023-05-01T10:09:41.435Z,4.50
2023-05-01T10:12:09.282Z,5.02
2023-05-01T10:14:51.316Z,4.68
2023-05-01T10:17:20.105Z,5.35
2023-05-01T10:19:49.068Z,4.75
2023-05-01T10:22:17.510Z,4.75
2023-05-01T10:24:46.222Z,4.98
2023-05-01T10:27:14.339Z,4.58
2023-05-01T10:29:42.899Z,4.56
2023-05-01T10:32:11.294Z,5.51
2023-05-01T10:34:52.950Z,5.08
2023-05-01T10:37:31.364Z,6.36
2023-05-01T10:39:59.282Z,5.52
2023-05-01T10:42:28.175Z,6.09
2023-05-01T10:45:29.161Z,5.90
2023-05-01T10:47:57.073Z,6.15
2023-05-01T10:50:24.947Z,5.95
2023-05-01T10:53:17.627Z,4.28
2023-05-01T10:55:47.776Z,4.34
2023-05-01T10:58:42.102Z,4.09
2023-05-01T11:01:39.836Z,4.27
2023-05-01T11:04:30.063Z,4.21
2023-05-01T11:07:11.306Z,3.85
2023-05-01T11:09:54.662Z,4.00
2023-05-01T11:12:48.568Z,4.51
2023-05-01T11:15:33.935Z,4.64
2023-05-01T11:18:03.845Z,3.50
2023-05-01T11:20:37.823Z,4.12
2023-05-01T11:23:07.750Z,4.81
2023-05-01T11:25:35.649Z,4.60
2023-05-01T11:28:06.520Z,3.97
2023-05-01T11:30:38.982Z,3.93
2023-05-01T11:33:10.103Z,4.42
2023-05-01T11:35:39.354Z,4.36
2023-05-01T11:38:18.597Z,4.18
2023-05-01T11:40:54.434Z,4.30
2023-05-01T11:43:23.552Z,4.46
2023-05-01T11:45:54.665Z,4.78
2023-05-01T11:48:22.727Z,4.60
2023-05-01T11:50:51.058Z,4.15
2023-05-01T11:53:18.971Z,3.97
2023-05-01T11:55:47.104Z,4.44
2023-05-01T11:58:14.985Z,4.13
2023-05-01T12:00:43.996Z,4.26
2023-05-01T12:03:15.172Z,6.54
2023-05-01T12:05:45.366Z,5.79
2023-05-01T12:08:18.469Z,4.16
2023-05-01T12:10:50.230Z,4.32
2023-05-01T12:13:18.692Z,4.16
2023-05-01T12:15:49.292Z,3.77
2023-05-01T12:18:18.036Z,4.24
2023-05-01T12:20:50.319Z,3.88
2023-05-01T12:23:20.595Z,3.97
2023-05-01T12:25:48.636Z,4.02
2023-05-01T12:28:19.887Z,4.06
2023-05-01T12:30:49.272Z,4.25
2023-05-01T12:33:19.453Z,4.11
2023-05-01T12:35:50.620Z,4.15
2023-05-01T12:38:20.983Z,4.11
2023-05-01T12:40:59.771Z,4.71
2023-05-01T12:43:31.008Z,4.44
2023-05-01T12:45:59.667Z,4.43
2023-05-01T12:48:27.951Z,3.80
2023-05-01T12:50:56.101Z,3.74
2023-05-01T12:53:26.411Z,3.88
2023-05-01T12:55:57.346Z,3.54
2023-05-01T12:58:38.599Z,3.53
2023-05-01T13:01:06.811Z,3.15
2023-05-01T13:03:38.361Z,3.04
2023-05-01T13:06:08.242Z,3.51
2023-05-01T13:08:40.103Z,3.68
2023-05-01T13:11:16.244Z,4.46
2023-05-01T13:13:45.942Z,3.97
2023-05-01T13:16:16.154Z,3.45
2023-05-01T13:18:45.737Z,3.58
2023-05-01T13:21:16.241Z,4.07
2023-05-01T13:23:53.662Z,3.37
2023-05-01T13:26:28.396Z,2.96
2023-05-01T13:28:57.343Z,3.13
2023-05-01T13:31:25.451Z,3.06
2023-05-01T13:33:55.291Z,2.98
2023-05-01T13:36:26.541Z,2.86
2023-05-01T13:38:56.801Z,2.81
2023-05-01T13:41:27.296Z,2.92
2023-05-01T13:43:57.094Z,3.07
2023-05-01T13:46:27.296Z,3.90
2023-05-01T13:48:56.398Z,4.34
2023-05-01T13:51:26.369Z,3.66
2023-05-01T13:53:56.269Z,3.65
2023-05-01T13:56:24.127Z,3.49
2023-05-01T13:58:52.001Z,3.43
2023-05-01T14:01:21.472Z,2.80
2023-05-01T14:03:49.885Z,3.05
2023-05-01T14:06:20.438Z,3.10
2023-05-01T14:08:49.254Z,3.36
2023-05-01T14:11:18.323Z,2.97
2023-05-01T14:13:47.672Z,3.02
2023-05-01T14:16:26.998Z,3.75
2023-05-01T14:18:57.254Z,3.29
2023-05-01T14:21:28.062Z,3.06
2023-05-01T14:23:57.190Z,3.14
2023-05-01T14:26:25.162Z,4.02
2023-05-01T14:28:53.089Z,3.71
2023-05-01T14:31:27.200Z,3.41
2023-05-01T14:34:04.273Z,3.00
2023-05-01T14:36:32.751Z,3.22
2023-05-01T14:39:02.920Z,3.30
2023-05-01T14:41:31.585Z,3.48
2023-05-01T14:44:00.163Z,2.99
2023-05-01T14:46:33.366Z,2.66
2023-05-01T14:49:03.082Z,2.87
2023-05-01T14:51:32.299Z,2.93
2023-05-01T14:54:00.652Z,2.81
2023-05-01T14:56:28.564Z,2.97
2023-05-01T14:58:56.439Z,2.50
2023-05-01T15:01:24.623Z,2.49
2023-05-01T15:03:53.409Z,2.65
2023-05-01T15:06:21.501Z,2.22
2023-05-01T15:08:49.822Z,2.96
2023-05-01T15:11:21.735Z,2.51
2023-05-01T15:13:50.523Z,2.37
2023-05-01T15:16:18.621Z,2.62
2023-05-01T15:18:46.453Z,2.66
2023-05-01T15:21:14.302Z,2.44
2023-05-01T15:23:45.281Z,2.50
2023-05-01T15:26:13.881Z,2.41
2023-05-01T15:28:41.817Z,2.64
2023-05-01T15:31:10.061Z,2.38
2023-05-01T15:33:37.933Z,2.44
2023-05-01T15:36:05.948Z,2.24
2023-05-01T15:38:33.781Z,2.57
2023-05-01T15:41:01.671Z,2.70
2023-05-01T15:43:30.533Z,2.84
2023-05-01T15:45:59.824Z,2.77
2023-05-01T15:48:27.955Z,3.06
2023-05-01T15:50:55.785Z,3.28
2023-05-01T15:53:23.793Z,3.38
2023-05-01T15:55:51.710Z,16.17
2023-05-01T15:58:23.098Z,10.45
2023-05-01T16:00:51.074Z,4.57
2023-05-01T16:03:19.033Z,3.04
2023-05-01T16:05:47.210Z,2.73
2023-05-01T16:08:17.448Z,2.90
2023-05-01T16:10:45.357Z,2.85
2023-05-01T16:13:13.342Z,2.81
2023-05-01T16:15:41.206Z,2.70
2023-05-01T16:18:10.266Z,2.80
2023-05-01T16:20:42.625Z,2.57
2023-05-01T16:23:11.824Z,2.87
2023-05-01T16:25:43.106Z,2.87
2023-05-01T16:28:12.261Z,14.29
2023-05-01T16:30:43.589Z,11.53
2023-05-01T16:33:18.816Z,6.62
2023-05-01T16:35:50.933Z,8.29
2023-05-01T16:38:19.316Z,3.59
2023-05-01T16:40:50.677Z,3.09
2023-05-01T16:43:18.549Z,3.16
2023-05-01T16:45:47.036Z,3.53
2023-05-01T16:48:21.393Z,3.28
2023-05-01T16:50:49.458Z,3.37
2023-05-01T16:53:18.235Z,9.81
2023-05-01T16:55:46.246Z,16.56
2023-05-01T16:58:14.049Z,5.12
2023-05-01T17:00:42.874Z,3.58
2023-05-01T17:03:10.846Z,3.48
2023-05-01T17:05:38.791Z,3.52
2023-05-01T17:08:06.971Z,3.44
2023-05-01T17:10:35.278Z,3.26
2023-05-01T17:13:03.114Z,3.60
2023-05-01T17:15:30.974Z,3.40
2023-05-01T17:17:58.983Z,3.28
2023-05-01T17:20:27.133Z,3.46
2023-05-01T17:22:55.145Z,3.60
2023-05-01T17:25:23.294Z,3.62
2023-05-01T17:27:51.133Z,3.43
2023-05-01T17:30:18.966Z,3.40
2023-05-01T17:32:46.948Z,2.99
2023-05-01T17:35:15.705Z,3.21
2023-05-01T17:37:43.581Z,3.03
2023-05-01T17:40:11.710Z,4.25
2023-05-01T17:42:39.700Z,4.00
2023-05-01T17:45:10.231Z,3.90
2023-05-01T17:47:42.853Z,3.74
2023-05-01T17:50:13.142Z,3.74
2023-05-01T17:52:45.059Z,3.61
2023-05-01T17:55:17.048Z,4.59
2023-05-01T17:57:47.045Z,4.70
2023-05-01T18:00:16.239Z,4.78
2023-05-01T18:02:46.544Z,4.36
2023-05-01T18:05:14.667Z,4.50
2023-05-01T18:07:42.654Z,4.84
2023-05-01T18:10:11.068Z,5.01
2023-05-01T18:12:39.117Z,4.91
2023-05-01T18:15:07.353Z,4.63
2023-05-01T18:17:35.155Z,4.77
2023-05-01T18:20:03.194Z,4.97
2023-05-01T18:22:32.061Z,4.84
2023-05-01T18:25:00.329Z,4.78
2023-05-01T18:27:28.318Z,4.64
2023-05-01T18:29:56.526Z,4.53
2023-05-01T18:32:32.937Z,4.95
2023-05-01T18:35:07.994Z,4.76
2023-05-01T18:37:35.876Z,5.16
2023-05-01T18:40:05.412Z,5.49
2023-05-01T18:42:33.273Z,6.01
2023-05-01T18:45:01.183Z,6.57
2023-05-01T18:47:29.107Z,7.47
2023-05-01T18:49:57.513Z,7.36
2023-05-01T18:52:25.517Z,7.32
2023-05-01T18:54:53.319Z,7.13
2023-05-01T18:57:21.166Z,7.73
2023-05-01T18:59:48.984Z,8.16
2023-05-01T19:02:16.850Z,9.32
2023-05-01T19:04:56.557Z,9.24
2023-05-01T19:07:26.546Z,9.20
2023-05-01T19:09:54.752Z,8.91
2023-05-01T19:12:22.590Z,9.58
2023-05-01T19:14:50.405Z,9.04
2023-05-01T19:17:18.920Z,9.60
2023-05-01T19:19:46.926Z,9.38
2023-05-01T19:22:14.797Z,9.08
2023-05-01T19:24:42.648Z,9.14
2023-05-01T19:27:11.671Z,9.10
2023-05-01T19:29:39.757Z,8.66
2023-05-01T19:32:07.933Z,8.61
2023-05-01T19:34:35.955Z,9.05
2023-05-01T19:37:04.077Z,9.13
2023-05-01T19:39:32.357Z,8.77
2023-05-01T19:42:02.194Z,8.81
2023-05-01T19:44:30.141Z,8.88
2023-05-01T19:46:58.198Z,8.59
2023-05-01T19:49:26.013Z,8.91
2023-05-01T19:51:54.235Z,9.00
2023-05-01T19:54:25.889Z,9.99
2023-05-01T19:56:53.815Z,10.36
2023-05-01T19:59:21.805Z,10.46
2023-05-01T20:01:51.627Z,9.48
2023-05-01T20:04:19.766Z,9.65
2023-05-01T20:06:47.719Z,10.14
2023-05-01T20:09:16.711Z,9.87
2023-05-01T20:11:44.597Z,9.14
2023-05-01T20:14:12.567Z,9.25
2023-05-01T20:16:40.768Z,9.20
2023-05-01T20:19:09.987Z,8.48
2023-05-01T20:21:37.944Z,8.72
2023-05-01T20:24:05.807Z,9.59
2023-05-01T20:26:33.799Z,10.56
2023-05-01T20:29:01.768Z,10.75
2023-05-01T20:31:31.778Z,11.55
2023-05-01T20:33:59.929Z,11.29
2023-05-01T20:36:28.571Z,11.54
2023-05-01T20:38:57.858Z,11.75
2023-05-01T20:41:25.995Z,11.62
2023-05-01T20:43:53.815Z,14.08
2023-05-01T20:46:22.923Z,13.43
2023-05-01T20:48:51.724Z,12.43
2023-05-01T20:51:19.773Z,13.12
2023-05-01T20:53:47.774Z,13.85
2023-05-01T20:56:15.864Z,13.94
2023-05-01T20:58:43.738Z,15.89
2023-05-01T21:01:12.046Z,15.49
2023-05-01T21:03:40.637Z,15.42
2023-05-01T21:06:08.709Z,15.59
2023-05-01T21:08:36.577Z,16.47
2023-05-01T21:11:05.679Z,16.80
2023-05-01T21:13:33.585Z,16.33
2023-05-01T21:16:02.756Z,15.24
2023-05-01T21:18:33.460Z,15.25
2023-05-01T21:21:04.518Z,15.15
2023-05-01T21:23:32.690Z,14.78
2023-05-01T21:26:00.578Z,14.79
2023-05-01T21:28:28.636Z,14.24
2023-05-01T21:30:57.033Z,13.82
2023-05-01T21:33:25.188Z,12.87
2023-05-01T21:35:53.135Z,12.35
2023-05-01T21:38:21.130Z,11.71
2023-05-01T21:40:49.315Z,11.62
2023-05-01T21:43:18.896Z,11.67
2023-05-01T21:45:46.746Z,10.91
2023-05-01T21:48:15.996Z,11.17
2023-05-01T21:50:48.597Z,10.62
2023-05-01T21:53:16.922Z,10.49
2023-05-01T21:55:46.483Z,10.24
2023-05-01T21:58:14.449Z,10.46
2023-05-01T22:00:42.691Z,9.60
2023-05-01T22:03:10.905Z,10.04
2023-05-01T22:05:41.032Z,9.63
2023-05-01T22:08:09.427Z,9.26
2023-05-01T22:10:37.340Z,9.84
2023-05-01T22:13:06.375Z,8.92
2023-05-01T22:15:34.900Z,8.95
2023-05-01T22:18:02.809Z,9.12
2023-05-01T22:20:31.097Z,9.29
2023-05-01T22:22:58.990Z,9.13
2023-05-01T22:25:26.926Z,9.34
2023-05-01T22:27:54.775Z,9.04
2023-05-01T22:30:22.587Z,8.62
2023-05-01T22:32:50.476Z,9.20
2023-05-01T22:35:18.567Z,9.37
2023-05-01T22:37:46.385Z,9.29
2023-05-01T22:40:14.704Z,10.14
2023-05-01T22:42:42.751Z,9.41
2023-05-01T22:45:10.895Z,9.31
2023-05-01T22:47:38.851Z,9.29
2023-05-01T22:50:07.400Z,9.32
2023-05-01T22:52:35.294Z,9.20
2023-05-01T22:55:03.249Z,9.27
2023-05-01T22:57:31.268Z,8.75
2023-05-01T22:59:59.344Z,8.77
2023-05-01T23:02:27.600Z,9.25
2023-05-01T23:04:55.615Z,9.36
2023-05-01T23:07:23.468Z,9.22
2023-05-01T23:09:51.276Z,9.46
2023-05-01T23:12:22.799Z,10.15
2023-05-01T23:14:50.832Z,9.62
2023-05-01T23:17:18.704Z,9.44
2023-05-01T23:19:46.647Z,9.51
2023-05-01T23:22:14.696Z,9.87
2023-05-01T23:24:47.551Z,9.93
2023-05-01T23:27:16.972Z,10.31
2023-05-01T23:29:59.415Z,10.69
2023-05-01T23:32:31.888Z,10.83
2023-05-01T23:35:16.189Z,11.01
2023-05-01T23:37:44.248Z,11.00
2023-05-01T23:40:12.140Z,11.42
2023-05-01T23:42:40.417Z,11.95
2023-05-01T23:45:09.329Z,12.46
2023-05-01T23:47:38.728Z,12.37
2023-05-01T23:50:07.252Z,12.31
2023-05-01T23:52:35.529Z,12.66
2023-05-01T23:55:03.590Z,12.42
2023-05-01T23:57:31.633Z,12.46
2023-05-01T23:59:59.641Z,13.96
